createdAt,value
2019-05-25T00:02:24.019Z,10.00
2019-05-25T00:04:52.461Z,10.00
2019-05-25T00:07:20.984Z,10.00
2019-05-25T00:09:49.478Z,9.90
2019-05-25T00:12:18.052Z,9.90
2019-05-25T00:14:46.513Z,9.90
2019-05-25T00:17:15.065Z,10.00
2019-05-25T00:19:43.588Z,10.00
2019-05-25T00:22:12.032Z,10.00
2019-05-25T00:24:40.511Z,10.00
2019-05-25T00:27:08.954Z,10.00
2019-05-25T00:29:37.393Z,9.90
2019-05-25T00:32:05.930Z,9.90
2019-05-25T00:34:34.365Z,9.90
2019-05-25T00:37:02.809Z,9.80
2019-05-25T00:39:31.277Z,9.70
2019-05-25T00:41:59.722Z,9.70
2019-05-25T00:44:28.167Z,9.60
2019-05-25T00:46:56.632Z,9.50
2019-05-25T00:49:25.150Z,9.60
2019-05-25T00:51:53.585Z,9.60
2019-05-25T00:54:27.920Z,9.50
2019-05-25T00:56:52.458Z,9.50
2019-05-25T00:59:20.977Z,9.40
2019-05-25T01:01:49.451Z,9.40
2019-05-25T01:04:17.901Z,9.40
2019-05-25T01:07:05.797Z,9.50
2019-05-25T01:09:34.309Z,9.50
2019-05-25T01:12:02.749Z,9.50
2019-05-25T01:14:31.230Z,9.50
2019-05-25T01:16:59.666Z,9.40
2019-05-25T01:19:28.104Z,9.40
2019-05-25T01:21:56.606Z,9.40
2019-05-25T01:24:25.049Z,9.30
2019-05-25T01:26:53.489Z,9.30
2019-05-25T01:29:22.330Z,9.30
2019-05-25T01:31:50.774Z,9.30
2019-05-25T01:34:19.283Z,9.20
2019-05-25T01:36:47.821Z,9.30
2019-05-25T01:39:16.279Z,9.40
2019-05-25T01:41:44.793Z,9.20
2019-05-25T01:44:13.278Z,9.10
2019-05-25T01:46:41.798Z,9.00
2019-05-25T01:49:10.237Z,8.90
2019-05-25T01:51:38.731Z,8.90
2019-05-25T01:54:07.256Z,9.00
2019-05-25T01:56:35.756Z,9.00
2019-05-25T01:59:05.038Z,9.10
2019-05-25T02:01:33.553Z,9.00
2019-05-25T02:04:01.995Z,9.10
2019-05-25T02:06:30.470Z,9.10
2019-05-25T02:08:58.908Z,9.00
2019-05-25T02:11:27.364Z,8.90
2019-05-25T02:13:55.916Z,8.80
2019-05-25T02:16:24.348Z,8.70
2019-05-25T02:18:52.790Z,8.70
2019-05-25T02:21:21.270Z,8.70
2019-05-25T02:23:49.719Z,8.70
2019-05-25T02:26:18.161Z,8.70
2019-05-25T02:28:46.703Z,8.80
2019-05-25T02:31:16.499Z,8.80
2019-05-25T02:33:44.151Z,8.80
2019-05-25T02:36:12.652Z,8.80
2019-05-25T02:38:41.101Z,8.80
2019-05-25T02:41:09.545Z,8.80
2019-05-25T02:43:38.472Z,8.90
2019-05-25T02:46:06.921Z,8.80
2019-05-25T02:48:35.505Z,8.70
2019-05-25T02:51:04.324Z,8.60
2019-05-25T02:53:32.772Z,8.70
2019-05-25T02:56:01.210Z,8.60
2019-05-25T02:58:29.765Z,8.70
2019-05-25T03:00:58.786Z,8.60
2019-05-25T03:03:27.292Z,8.60
2019-05-25T03:05:57.424Z,8.60
2019-05-25T03:08:25.873Z,8.70
2019-05-25T03:10:55.049Z,8.70
2019-05-25T03:13:23.528Z,8.80
2019-05-25T03:15:51.979Z,8.80
2019-05-25T03:18:20.422Z,8.80
2019-05-25T03:20:48.962Z,8.90
2019-05-25T03:23:17.411Z,8.90
2019-05-25T03:25:49.698Z,8.90
2019-05-25T03:28:16.154Z,8.90
2019-05-25T03:30:44.669Z,8.90
2019-05-25T03:33:13.184Z,9.00
2019-05-25T03:35:41.784Z,9.00
2019-05-25T03:38:10.309Z,9.00
2019-05-25T03:40:38.762Z,9.00
2019-05-25T03:43:07.250Z,9.10
2019-05-25T03:45:35.690Z,9.10
2019-05-25T03:48:04.282Z,9.20
2019-05-25T03:50:32.754Z,9.20
2019-05-25T03:53:01.272Z,9.30
2019-05-25T03:55:29.704Z,9.40
2019-05-25T03:57:59.118Z,9.50
2019-05-25T04:00:35.917Z,9.60
2019-05-25T04:03:06.935Z,9.60
2019-05-25T04:05:35.443Z,9.80
2019-05-25T04:08:04.265Z,9.90
2019-05-25T04:10:32.808Z,10.00
2019-05-25T04:13:01.326Z,10.00
2019-05-25T04:15:29.860Z,10.10
2019-05-25T04:17:58.361Z,10.20
2019-05-25T04:20:26.955Z,10.30
2019-05-25T04:22:55.405Z,10.40
2019-05-25T04:25:23.881Z,10.40
2019-05-25T04:27:52.339Z,10.60
2019-05-25T04:30:21.230Z,10.70
2019-05-25T04:32:49.711Z,10.80
2019-05-25T04:35:18.233Z,11.00
2019-05-25T04:37:46.679Z,11.10
2019-05-25T04:40:15.299Z,11.30
2019-05-25T04:42:43.760Z,11.40
2019-05-25T04:45:13.029Z,11.50
2019-05-25T04:47:41.568Z,11.60
2019-05-25T04:50:10.264Z,11.80
2019-05-25T04:52:41.231Z,12.00
2019-05-25T04:55:09.354Z,12.20
2019-05-25T04:57:37.866Z,12.30
2019-05-25T05:00:07.948Z,12.30
2019-05-25T05:02:36.510Z,12.50
2019-05-25T05:05:06.193Z,12.50
2019-05-25T05:07:33.856Z,12.60
2019-05-25T05:10:03.290Z,12.80
2019-05-25T05:12:31.164Z,13.00
2019-05-25T05:14:59.615Z,13.20
2019-05-25T05:17:28.093Z,13.30
2019-05-25T05:19:56.542Z,13.50
2019-05-25T05:22:24.994Z,13.70
2019-05-25T05:24:53.763Z,13.60
2019-05-25T05:27:22.248Z,13.70
2019-05-25T05:29:50.690Z,13.80
2019-05-25T05:32:27.587Z,14.00
2019-05-25T05:34:49.841Z,14.30
2019-05-25T05:37:18.424Z,14.50
2019-05-25T05:39:47.746Z,14.60
2019-05-25T05:42:18.506Z,14.70
2019-05-25T05:44:47.389Z,14.80
2019-05-25T05:47:17.194Z,14.90
2019-05-25T05:49:46.077Z,15.10
2019-05-25T05:52:16.834Z,15.20
2019-05-25T05:54:46.585Z,15.30
2019-05-25T05:57:15.031Z,15.30
2019-05-25T05:59:43.482Z,15.40
2019-05-25T06:02:12.065Z,15.50
2019-05-25T06:04:40.508Z,15.60
2019-05-25T06:07:09.013Z,15.70
2019-05-25T06:09:37.577Z,15.70
2019-05-25T06:12:06.039Z,15.70
2019-05-25T06:14:34.553Z,15.80
2019-05-25T06:17:03.106Z,16.00
2019-05-25T06:19:31.621Z,16.20
2019-05-25T06:22:00.084Z,16.40
2019-05-25T06:24:28.625Z,16.40
2019-05-25T06:26:57.072Z,16.20
2019-05-25T06:29:25.517Z,16.40
2019-05-25T06:31:54.003Z,16.50
2019-05-25T06:34:22.456Z,16.40
2019-05-25T06:36:50.917Z,16.60
2019-05-25T06:39:19.393Z,16.60
2019-05-25T06:41:48.308Z,16.70
2019-05-25T06:44:16.749Z,16.60
2019-05-25T06:46:45.243Z,16.40
2019-05-25T06:49:13.705Z,16.70
2019-05-25T06:51:42.152Z,16.70
2019-05-25T06:54:10.647Z,16.40
2019-05-25T06:56:39.094Z,16.50
2019-05-25T06:59:07.538Z,16.50
2019-05-25T07:01:36.038Z,16.60
2019-05-25T07:04:04.614Z,16.50
2019-05-25T07:06:33.056Z,16.80
2019-05-25T07:09:01.840Z,17.00
2019-05-25T07:11:30.284Z,16.90
2019-05-25T07:13:58.730Z,17.00
2019-05-25T07:16:27.221Z,16.80
2019-05-25T07:18:55.672Z,17.00
2019-05-25T07:21:24.188Z,17.10
2019-05-25T07:23:52.662Z,17.10
2019-05-25T07:26:21.111Z,17.30
2019-05-25T07:28:49.620Z,17.20
2019-05-25T07:31:18.137Z,17.30
2019-05-25T07:33:46.627Z,17.40
2019-05-25T07:36:15.214Z,17.40
2019-05-25T07:38:43.694Z,17.40
2019-05-25T07:41:12.135Z,17.50
2019-05-25T07:43:40.578Z,17.60
2019-05-25T07:46:09.047Z,17.90
2019-05-25T07:48:37.494Z,18.20
2019-05-25T07:51:05.963Z,18.30
2019-05-25T07:53:34.544Z,18.20
2019-05-25T07:56:02.990Z,18.40
2019-05-25T07:58:31.445Z,18.60
2019-05-25T08:00:59.915Z,18.80
2019-05-25T08:03:28.362Z,19.00
2019-05-25T08:05:56.809Z,18.70
2019-05-25T08:08:25.373Z,18.50
2019-05-25T08:10:54.176Z,18.90
2019-05-25T08:13:22.625Z,18.90
2019-05-25T08:15:51.182Z,19.00
2019-05-25T08:18:19.629Z,19.30
2019-05-25T08:20:48.088Z,19.50
2019-05-25T08:23:16.694Z,19.50
2019-05-25T08:25:45.135Z,19.60
2019-05-25T08:28:13.583Z,19.60
2019-05-25T08:30:42.214Z,19.60
2019-05-25T08:33:10.793Z,19.90
2019-05-25T08:35:39.310Z,20.00
2019-05-25T08:38:07.802Z,19.90
2019-05-25T08:40:36.306Z,19.70
2019-05-25T08:43:04.872Z,19.50
2019-05-25T08:45:33.690Z,19.60
2019-05-25T08:48:02.559Z,19.70
2019-05-25T08:50:38.159Z,19.80
2019-05-25T08:53:01.344Z,20.10
2019-05-25T08:55:29.994Z,19.80
2019-05-25T08:57:58.463Z,20.00
2019-05-25T09:00:27.140Z,20.40
2019-05-25T09:02:55.739Z,20.40
2019-05-25T09:05:24.190Z,20.40
2019-05-25T09:07:52.905Z,20.50
2019-05-25T09:10:21.417Z,20.70
2019-05-25T09:12:50.056Z,20.50
2019-05-25T09:15:18.755Z,20.40
2019-05-25T09:17:47.282Z,20.50
2019-05-25T09:20:16.570Z,20.60
2019-05-25T09:22:45.086Z,21.10
2019-05-25T09:25:14.004Z,21.40
2019-05-25T09:27:42.586Z,21.40
2019-05-25T09:30:11.583Z,21.40
2019-05-25T09:32:40.139Z,21.60
2019-05-25T09:35:09.217Z,21.60
2019-05-25T09:37:37.708Z,22.10
2019-05-25T09:40:07.034Z,21.50
2019-05-25T09:42:36.442Z,21.20
2019-05-25T09:45:08.433Z,21.30
2019-05-25T09:47:36.976Z,21.60
2019-05-25T09:50:08.840Z,21.70
2019-05-25T09:52:37.342Z,22.00
2019-05-25T09:55:07.713Z,22.10
2019-05-25T09:57:36.232Z,22.30
2019-05-25T10:00:07.702Z,22.40
2019-05-25T10:02:36.161Z,22.00
2019-05-25T10:05:08.939Z,21.30
2019-05-25T10:07:37.472Z,21.30
2019-05-25T10:10:07.753Z,21.60
2019-05-25T10:12:36.268Z,21.70
2019-05-25T10:15:07.406Z,22.10
2019-05-25T10:17:35.841Z,21.90
2019-05-25T10:20:05.969Z,22.00
2019-05-25T10:22:34.561Z,21.90
2019-05-25T10:25:04.240Z,21.90
2019-05-25T10:27:34.343Z,22.40
2019-05-25T10:30:03.243Z,22.40
2019-05-25T10:32:31.684Z,22.70
2019-05-25T10:35:00.139Z,22.50
2019-05-25T10:37:28.669Z,22.50
2019-05-25T10:39:57.125Z,22.00
2019-05-25T10:42:25.570Z,22.30
2019-05-25T10:44:54.041Z,22.30
2019-05-25T10:47:22.557Z,22.80
2019-05-25T10:49:51.038Z,23.00
2019-05-25T10:52:19.552Z,23.30
2019-05-25T10:54:47.998Z,23.40
2019-05-25T10:57:16.525Z,23.50
2019-05-25T10:59:52.854Z,23.60
2019-05-25T11:02:15.224Z,23.60
2019-05-25T11:04:43.744Z,24.00
2019-05-25T11:07:12.220Z,23.80
2019-05-25T11:09:40.660Z,23.90
2019-05-25T11:12:09.109Z,24.00
2019-05-25T11:14:37.584Z,23.80
2019-05-25T11:17:06.440Z,23.40
2019-05-25T11:19:34.954Z,23.50
2019-05-25T11:22:03.507Z,23.60
2019-05-25T11:24:32.001Z,23.90
2019-05-25T11:27:00.437Z,24.00
2019-05-25T11:29:28.917Z,23.80
2019-05-25T11:32:01.586Z,23.90
2019-05-25T11:34:27.552Z,23.40
2019-05-25T11:36:56.033Z,23.10
2019-05-25T11:39:24.477Z,23.20
2019-05-25T11:41:52.920Z,23.60
2019-05-25T11:44:21.409Z,23.80
2019-05-25T11:46:49.926Z,24.30
2019-05-25T11:49:22.516Z,24.20
2019-05-25T11:51:48.573Z,24.10
2019-05-25T11:54:36.349Z,24.20
2019-05-25T11:57:04.889Z,24.70
2019-05-25T11:59:33.324Z,24.60
2019-05-25T12:02:01.765Z,24.80
2019-05-25T12:04:30.233Z,24.60
2019-05-25T12:06:58.682Z,24.30
2019-05-25T12:09:27.119Z,24.20
2019-05-25T12:11:55.587Z,24.40
2019-05-25T12:14:24.045Z,24.70
2019-05-25T12:16:52.487Z,25.00
2019-05-25T12:19:21.153Z,25.10
2019-05-25T12:21:49.673Z,24.70
2019-05-25T12:24:18.121Z,25.40
2019-05-25T12:26:46.602Z,26.10
2019-05-25T12:29:15.046Z,26.40
2019-05-25T12:31:43.504Z,26.90
2019-05-25T12:34:12.097Z,25.90
2019-05-25T12:36:40.622Z,26.10
2019-05-25T12:39:09.145Z,25.30
2019-05-25T12:41:37.607Z,25.10
2019-05-25T12:44:06.052Z,24.60
2019-05-25T12:46:34.498Z,24.60
2019-05-25T12:49:02.989Z,25.10
2019-05-25T12:51:31.446Z,26.10
2019-05-25T12:53:59.956Z,27.70
2019-05-25T12:56:28.428Z,28.10
2019-05-25T12:58:56.870Z,27.80
2019-05-25T13:01:25.325Z,27.20
2019-05-25T13:03:53.864Z,25.90
2019-05-25T13:06:23.179Z,25.10
2019-05-25T13:08:51.628Z,24.80
2019-05-25T13:11:20.171Z,25.40
2019-05-25T13:13:48.626Z,26.30
2019-05-25T13:16:17.152Z,27.50
2019-05-25T13:18:45.742Z,27.50
2019-05-25T13:21:14.495Z,26.40
2019-05-25T13:23:42.941Z,25.70
2019-05-25T13:26:11.481Z,24.90
2019-05-25T13:28:39.938Z,24.40
2019-05-25T13:31:11.842Z,24.00
2019-05-25T13:33:38.678Z,23.30
2019-05-25T13:36:07.195Z,22.50
2019-05-25T13:38:35.657Z,22.10
2019-05-25T13:41:04.280Z,23.00
2019-05-25T13:43:32.860Z,24.80
2019-05-25T13:46:01.305Z,26.70
2019-05-25T13:48:29.791Z,26.50
2019-05-25T13:50:58.245Z,26.50
2019-05-25T13:53:26.690Z,27.90
2019-05-25T13:55:55.151Z,28.30
2019-05-25T13:58:23.600Z,27.90
2019-05-25T14:00:52.040Z,27.10
2019-05-25T14:03:20.603Z,25.90
2019-05-25T14:05:49.050Z,25.30
2019-05-25T14:08:17.490Z,24.90
2019-05-25T14:10:45.956Z,24.60
2019-05-25T14:13:14.402Z,24.50
2019-05-25T14:15:42.841Z,25.70
2019-05-25T14:18:11.314Z,27.00
2019-05-25T14:20:39.753Z,28.80
2019-05-25T14:23:08.250Z,29.50
2019-05-25T14:25:36.793Z,29.60
2019-05-25T14:28:05.304Z,30.60
2019-05-25T14:30:35.286Z,30.70
2019-05-25T14:33:03.917Z,31.50
2019-05-25T14:35:32.364Z,30.80
2019-05-25T14:38:00.805Z,31.20
2019-05-25T14:40:29.351Z,31.60
2019-05-25T14:42:57.806Z,31.90
2019-05-25T14:45:26.261Z,33.00
2019-05-25T14:47:54.767Z,33.50
2019-05-25T14:50:23.211Z,32.90
2019-05-25T14:52:51.658Z,31.40
2019-05-25T14:55:20.207Z,30.70
2019-05-25T14:57:48.656Z,30.70
2019-05-25T15:00:18.962Z,30.70
2019-05-25T15:02:47.457Z,30.90
2019-05-25T15:05:16.033Z,31.60
2019-05-25T15:07:44.477Z,30.90
2019-05-25T15:10:13.309Z,30.30
2019-05-25T15:12:41.753Z,30.30
2019-05-25T15:15:10.633Z,30.40
2019-05-25T15:17:39.109Z,30.60
2019-05-25T15:20:08.894Z,30.30
2019-05-25T15:22:37.341Z,29.30
2019-05-25T15:25:08.160Z,28.90
2019-05-25T15:27:36.672Z,28.50
2019-05-25T15:30:10.323Z,28.80
2019-05-25T15:32:38.796Z,29.00
2019-05-25T15:35:07.983Z,28.10
2019-05-25T15:37:35.732Z,27.60
2019-05-25T15:40:07.127Z,27.20
2019-05-25T15:42:35.570Z,27.30
2019-05-25T15:45:05.656Z,26.50
2019-05-25T15:47:34.129Z,26.10
2019-05-25T15:50:02.682Z,26.40
2019-05-25T15:52:31.585Z,26.10
2019-05-25T15:55:00.086Z,25.90
2019-05-25T15:57:28.586Z,25.90
2019-05-25T15:59:57.030Z,25.80
2019-05-25T16:02:36.443Z,25.60
2019-05-25T16:04:55.669Z,25.70
2019-05-25T16:07:24.114Z,25.00
2019-05-25T16:09:52.665Z,24.80
2019-05-25T16:12:21.106Z,24.50
2019-05-25T16:14:49.558Z,24.40
2019-05-25T16:17:18.065Z,24.50
2019-05-25T16:19:46.514Z,24.30
2019-05-25T16:22:14.960Z,24.20
2019-05-25T16:24:43.450Z,23.80
2019-05-25T16:27:12.117Z,24.00
2019-05-25T16:29:40.566Z,24.20
2019-05-25T16:32:09.106Z,23.70
2019-05-25T16:34:37.541Z,23.90
2019-05-25T16:37:06.137Z,23.60
2019-05-25T16:39:34.703Z,23.10
2019-05-25T16:42:03.140Z,22.70
2019-05-25T16:44:31.593Z,22.50
2019-05-25T16:47:00.084Z,22.20
2019-05-25T16:49:28.610Z,22.00
2019-05-25T16:51:57.121Z,22.00
2019-05-25T16:54:25.621Z,21.90
2019-05-25T16:56:54.122Z,21.90
2019-05-25T16:59:22.561Z,21.80
2019-05-25T17:01:51.036Z,21.60
2019-05-25T17:04:19.474Z,21.50
2019-05-25T17:06:47.924Z,21.40
2019-05-25T17:09:16.415Z,21.10
2019-05-25T17:11:44.930Z,20.90
2019-05-25T17:14:13.374Z,20.90
2019-05-25T17:16:41.867Z,20.80
2019-05-25T17:19:10.382Z,20.60
2019-05-25T17:21:38.816Z,20.50
2019-05-25T17:24:07.298Z,20.60
2019-05-25T17:26:35.741Z,20.60
2019-05-25T17:29:04.524Z,20.50
2019-05-25T17:31:33.070Z,20.50
2019-05-25T17:34:01.590Z,20.60
2019-05-25T17:36:30.033Z,20.50
2019-05-25T17:38:58.553Z,20.40
2019-05-25T17:41:27.067Z,20.30
2019-05-25T17:43:55.505Z,20.20
2019-05-25T17:46:24.006Z,20.30
2019-05-25T17:48:52.462Z,20.20
2019-05-25T17:51:20.911Z,20.10
2019-05-25T17:53:49.385Z,20.00
2019-05-25T17:56:17.826Z,19.80
2019-05-25T17:58:46.348Z,19.60
2019-05-25T18:01:14.824Z,19.40
2019-05-25T18:03:43.268Z,19.30
2019-05-25T18:06:11.726Z,19.30
2019-05-25T18:08:40.208Z,19.20
2019-05-25T18:11:08.728Z,19.00
2019-05-25T18:13:56.554Z,18.90
2019-05-25T18:16:25.014Z,18.80
2019-05-25T18:18:53.535Z,18.60
2019-05-25T18:21:22.031Z,18.60
2019-05-25T18:23:50.478Z,18.40
2019-05-25T18:26:19.004Z,18.30
2019-05-25T18:28:47.505Z,18.30
2019-05-25T18:31:16.181Z,18.20
2019-05-25T18:33:44.700Z,18.10
2019-05-25T18:36:13.187Z,17.90
2019-05-25T18:38:41.637Z,17.80
2019-05-25T18:41:10.090Z,17.70
2019-05-25T18:43:38.583Z,17.70
2019-05-25T18:46:07.123Z,17.60
2019-05-25T18:48:35.636Z,17.60
2019-05-25T18:51:04.278Z,17.50
2019-05-25T18:53:32.815Z,17.40
2019-05-25T18:56:01.262Z,17.30
2019-05-25T18:58:29.751Z,17.30
2019-05-25T19:00:58.244Z,17.40
2019-05-25T19:03:26.813Z,17.40
2019-05-25T19:05:55.311Z,17.20
2019-05-25T19:08:23.848Z,17.00
2019-05-25T19:10:52.293Z,16.80
2019-05-25T19:13:20.781Z,16.70
2019-05-25T19:15:49.239Z,16.60
2019-05-25T19:18:17.685Z,16.50
2019-05-25T19:20:46.173Z,16.50
2019-05-25T19:23:14.629Z,16.50
2019-05-25T19:25:43.142Z,16.40
2019-05-25T19:28:11.665Z,16.40
2019-05-25T19:30:40.115Z,16.40
2019-05-25T19:33:09.006Z,16.30
2019-05-25T19:35:37.543Z,16.30
2019-05-25T19:38:06.079Z,16.30
2019-05-25T19:40:34.592Z,16.20
2019-05-25T19:43:03.079Z,16.10
2019-05-25T19:45:32.869Z,15.90
2019-05-25T19:48:01.637Z,15.70
2019-05-25T19:50:30.131Z,15.70
2019-05-25T19:52:58.578Z,15.90
2019-05-25T19:55:27.041Z,16.00
2019-05-25T19:57:55.518Z,16.00
2019-05-25T20:00:24.213Z,15.90
2019-05-25T20:02:52.730Z,14.30
2019-05-25T20:05:21.284Z,15.80
2019-05-25T20:07:49.816Z,15.70
2019-05-25T20:10:18.774Z,15.60
2019-05-25T20:12:47.256Z,15.60
2019-05-25T20:15:15.775Z,15.50
2019-05-25T20:17:44.300Z,15.50
2019-05-25T20:20:13.414Z,15.50
2019-05-25T20:22:41.861Z,15.50
2019-05-25T20:25:10.551Z,15.40
2019-05-25T20:27:39.037Z,15.30
2019-05-25T20:30:08.927Z,15.10
2019-05-25T20:32:37.376Z,15.10
2019-05-25T20:35:07.511Z,15.00
2019-05-25T20:37:36.109Z,14.90
2019-05-25T20:40:07.165Z,14.90
2019-05-25T20:42:35.870Z,14.90
2019-05-25T20:45:06.556Z,14.90
2019-05-25T20:47:35.073Z,14.80
2019-05-25T20:50:07.392Z,14.80
2019-05-25T20:52:35.904Z,14.80
2019-05-25T20:55:09.873Z,14.70
2019-05-25T20:57:38.448Z,14.80
2019-05-25T21:00:07.365Z,14.80
2019-05-25T21:02:35.896Z,14.80
2019-05-25T21:05:06.788Z,14.80
2019-05-25T21:07:35.239Z,14.90
2019-05-25T21:10:07.678Z,14.70
2019-05-25T21:12:36.249Z,14.60
2019-05-25T21:15:08.089Z,14.50
2019-05-25T21:17:36.546Z,14.40
2019-05-25T21:20:06.132Z,14.50
2019-05-25T21:22:34.594Z,14.40
2019-05-25T21:25:06.175Z,14.40
2019-05-25T21:27:34.996Z,14.40
2019-05-25T21:30:03.883Z,14.40
2019-05-25T21:32:32.333Z,14.20
2019-05-25T21:35:00.903Z,14.20
2019-05-25T21:37:29.778Z,14.20
2019-05-25T21:39:58.304Z,14.20
2019-05-25T21:42:26.792Z,14.20
2019-05-25T21:44:55.250Z,14.20
2019-05-25T21:47:23.706Z,14.00
2019-05-25T21:49:52.275Z,13.90
2019-05-25T21:52:20.742Z,13.90
2019-05-25T21:54:49.192Z,13.90
2019-05-25T21:57:17.680Z,13.80
2019-05-25T21:59:46.137Z,13.80
2019-05-25T22:02:14.596Z,13.90
2019-05-25T22:04:43.146Z,13.80
2019-05-25T22:07:11.596Z,13.80
2019-05-25T22:09:40.114Z,13.80
2019-05-25T22:12:08.658Z,13.70
2019-05-25T22:14:37.109Z,13.60
2019-05-25T22:17:05.701Z,13.60
2019-05-25T22:19:34.183Z,13.60
2019-05-25T22:22:02.625Z,13.60
2019-05-25T22:24:31.080Z,13.60
2019-05-25T22:26:59.572Z,13.50
2019-05-25T22:29:28.085Z,13.50
2019-05-25T22:31:56.535Z,13.50
2019-05-25T22:34:25.031Z,13.50
2019-05-25T22:36:53.483Z,13.50
2019-05-25T22:39:22.122Z,13.50
2019-05-25T22:41:50.689Z,13.60
2019-05-25T22:44:19.208Z,13.60
2019-05-25T22:46:47.687Z,13.60
2019-05-25T22:49:16.158Z,13.60
2019-05-25T22:51:44.607Z,13.60
2019-05-25T22:54:13.044Z,13.60
2019-05-25T22:56:41.524Z,13.70
2019-05-25T22:59:09.980Z,13.70
2019-05-25T23:01:38.499Z,13.60
2019-05-25T23:04:06.976Z,13.70
2019-05-25T23:06:35.513Z,13.70
2019-05-25T23:09:06.578Z,13.80
2019-05-25T23:11:35.122Z,13.80
2019-05-25T23:14:04.309Z,13.90
2019-05-25T23:16:33.123Z,13.90
2019-05-25T23:19:01.602Z,13.90
2019-05-25T23:21:30.050Z,13.90
2019-05-25T23:23:58.490Z,13.80
2019-05-25T23:26:26.992Z,13.80
2019-05-25T23:28:55.436Z,13.80
2019-05-25T23:31:23.887Z,13.70
2019-05-25T23:33:52.375Z,13.70
2019-05-25T23:36:20.818Z,13.70
2019-05-25T23:38:49.328Z,13.70
2019-05-25T23:41:18.581Z,13.60
2019-05-25T23:43:47.025Z,13.60
2019-05-25T23:46:15.478Z,13.70
2019-05-25T23:48:43.978Z,13.70
2019-05-25T23:51:12.441Z,13.60
2019-05-25T23:53:40.945Z,13.50
2019-05-25T23:56:09.469Z,13.40
2019-05-25T23:58:37.930Z,13.30
